KBDR

Igor I Sikorsky Memorial Airport

Bridgeport, Connecticut, USA
KBDR 210839Z 2109/2206 VRB04KT P6SM SKC FM211200 31008KT P6SM FEW250 FM211800 28012G19KT P6SM FEW040 SCT250 FM212300 33007KT P6SM SCT250
Issued Valid From Valid To
Apr-21 @ 08:39 UTC
(an hour ago)
Apr-21 @ 09:00 UTC
(50 minutes ago)
Apr-22 @ 06:00 UTC
(in 20 hours)
Apr-21 @ 09:00 to Apr-21 @ 12:00
KBDR 210839Z 2109/2206 VRB04KT P6SM SKC
Wind Visibility Clouds
Variable at 4 knots Greater than 6 miles
  • Clear skies
From Apr-21 @ 12:00 to Apr-21 @ 18:00
FM211200 31008KT P6SM FEW250
Wind Visibility Clouds
310° at 8 knots Greater than 6 miles
  • Few at 25,000' AGL
From Apr-21 @ 18:00 to Apr-21 @ 23:00
FM211800 28012G19KT P6SM FEW040 SCT250
Wind Visibility Clouds
280° at 12 knots
 Gusting to 19 knots
Greater than 6 miles
  • Few at 4,000' AGL
  • Scattered at 25,000' AGL
From Apr-21 @ 23:00 to Apr-22 @ 06:00
FM212300 33007KT P6SM SCT250
Wind Visibility Clouds
330° at 7 knots Greater than 6 miles
  • Scattered at 25,000' AGL
KBDR 210839Z 2109/2206 VRB04KT P6SM SKC FM211200 31008KT P6SM FEW250 FM211800 28012G19KT P6SM FEW040 SCT250 FM212300 33007KT P6SM SCT250
Issued Apr-21 @ 08:39 UTC
(an hour ago)
Valid From Apr-21 @ 09:00 UTC
(50 minutes ago)
Valid To Apr-22 @ 06:00 UTC
(in 20 hours)
Apr-21 @ 09:00 - Apr-21 @ 12:00
Wind Visibility
Variable at 4 knots Greater than 6 miles
Clouds
  • Clear skies
From Apr-21 @ 12:00 - Apr-21 @ 18:00
Wind Visibility
310° at 8 knots Greater than 6 miles
Clouds
  • Few at 25,000' AGL
From Apr-21 @ 18:00 - Apr-21 @ 23:00
Wind Visibility
280° at 12 knots
 Gusting to 19 knots
Greater than 6 miles
Clouds
  • Few at 4,000' AGL
  • Scattered at 25,000' AGL
From Apr-21 @ 23:00 - Apr-22 @ 06:00
Wind Visibility
330° at 7 knots Greater than 6 miles
Clouds
  • Scattered at 25,000' AGL